Time;durP1;ratioP1;P1;durP2;ratioP2;P2;SDS_P1;SDS_P2;PMS_P1;PMS_P2;Temp;Humidity;BMP_temperature;BMP_pressure;BME280_temperature;BME280_humidity;BME280_pressure;Samples;Min_cycle;Max_cycle;Signal;HPM_P1;HPM_P2
2021/03/31 00:01:28;;;;;;;7.57;2.80;;;8.80;1.00;;;;;;5073338;28;20393;-75
2021/03/31 00:03:54;;;;;;;7.03;2.60;;;8.70;1.00;;;;;;5073145;28;20428;-73
2021/03/31 00:06:22;;;;;;;4.97;2.90;;;8.70;1.00;;;;;;5072375;28;20449;-72
2021/03/31 00:08:49;;;;;;;15.83;2.90;;;8.70;1.00;;;;;;5073069;28;20731;-73
2021/03/31 00:11:14;;;;;;;17.83;2.90;;;8.60;1.00;;;;;;5073003;28;20425;-73
2021/03/31 00:13:40;;;;;;;6.40;3.40;;;8.60;1.00;;;;;;5071755;28;20484;-73
2021/03/31 00:16:06;;;;;;;6.23;3.40;;;8.60;1.00;;;;;;5055450;28;20176;-73
2021/03/31 00:18:32;;;;;;;10.90;4.00;;;8.60;1.00;;;;;;5073083;28;20425;-73
2021/03/31 00:20:59;;;;;;;20.30;3.43;;;8.50;1.00;;;;;;5091450;28;20561;-73
2021/03/31 00:23:27;;;;;;;10.23;4.03;;;8.50;1.00;;;;;;5064528;28;20429;-73
2021/03/31 00:25:53;;;;;;;6.77;4.10;;;8.50;1.00;;;;;;5072879;28;20429;-73
2021/03/31 00:28:23;;;;;;;28.83;3.70;;;8.50;1.00;;;;;;5076735;28;20404;-73
2021/03/31 00:30:50;;;;;;;7.60;3.47;;;8.50;1.00;;;;;;5076288;28;20397;-72
2021/03/31 00:33:16;;;;;;;5.00;3.33;;;8.40;1.00;;;;;;5065295;28;20429;-73
2021/03/31 00:35:42;;;;;;;7.00;2.97;;;8.40;1.00;;;;;;5057136;28;20444;-73
2021/03/31 00:38:09;;;;;;;5.80;3.70;;;8.40;1.00;;;;;;5056751;28;20453;-73
2021/03/31 00:40:42;;;;;;;6.43;3.43;;;8.40;1.00;;;;;;5056895;28;20907;-73
2021/03/31 00:43:09;;;;;;;4.30;3.10;;;8.40;1.00;;;;;;5067002;28;20409;-73
2021/03/31 00:45:35;;;;;;;7.37;3.20;;;8.30;1.00;;;;;;5066253;28;20410;-73
2021/03/31 00:48:04;;;;;;;6.03;3.00;;;8.30;1.00;;;;;;5056816;28;20398;-75
2021/03/31 00:50:30;;;;;;;9.93;4.13;;;8.20;1.00;;;;;;5072668;28;20420;-73
2021/03/31 00:53:00;;;;;;;6.03;3.40;;;8.20;1.00;;;;;;5076323;28;20735;-72
2021/03/31 00:55:28;;;;;;;7.30;3.73;;;8.20;1.00;;;;;;5075952;28;20179;-73
2021/03/31 00:58:05;;;;;;;9.17;4.30;;;8.20;1.00;;;;;;5060082;28;20925;-73
2021/03/31 01:00:30;;;;;;;4.80;3.90;;;8.10;1.00;;;;;;5056135;28;20790;-73
2021/03/31 01:02:59;;;;;;;6.83;3.50;;;8.10;1.00;;;;;;5056411;28;20410;-73
2021/03/31 01:05:28;;;;;;;9.03;3.80;;;8.10;1.00;;;;;;5065571;28;20500;-73
2021/03/31 01:07:55;;;;;;;6.93;3.80;;;8.10;1.00;;;;;;5075142;28;20495;-73
2021/03/31 01:10:33;;;;;;;6.57;3.60;;;8.10;1.00;;;;;;5073063;28;20440;-73
2021/03/31 01:12:59;;;;;;;11.93;3.63;;;;;;;;;;5055999;28;20441;-73
2021/03/31 01:15:43;;;;;;;8.10;3.87;;;8.10;1.00;;;;;;5055875;28;20497;-73
2021/03/31 01:18:26;;;;;;;7.77;4.10;;;8.00;1.00;;;;;;5064405;28;20449;-73
2021/03/31 01:20:52;;;;;;;7.43;3.70;;;;;;;;;;5095539;28;21024;-73
2021/03/31 01:23:34;;;;;;;9.80;4.17;;;8.00;1.00;;;;;;5071762;28;20475;-72
2021/03/31 01:26:11;;;;;;;26.70;4.00;;;8.00;1.00;;;;;;5072694;28;20771;-72
2021/03/31 01:28:45;;;;;;;7.80;3.33;;;8.00;1.00;;;;;;5066697;28;20414;-73
2021/03/31 01:31:20;;;;;;;5.10;3.10;;;8.00;1.00;;;;;;5055325;28;20401;-73
2021/03/31 01:34:08;;;;;;;9.63;3.13;;;7.90;1.00;;;;;;5074064;28;20417;-73
2021/03/31 01:36:35;;;;;;;7.60;3.43;;;7.90;1.00;;;;;;5056448;28;21047;-73
2021/03/31 01:39:04;;;;;;;4.60;3.00;;;7.90;1.00;;;;;;5055223;28;20421;-73
2021/03/31 01:41:31;;;;;;;8.17;3.97;;;7.90;1.00;;;;;;5055047;28;20449;-73
2021/03/31 01:44:00;;;;;;;10.07;3.93;;;7.90;1.00;;;;;;5065533;28;20441;-73
2021/03/31 01:46:30;;;;;;;5.90;3.57;;;7.80;1.00;;;;;;5074899;28;20421;-73
2021/03/31 01:48:59;;;;;;;9.23;3.80;;;7.80;1.00;;;;;;5075503;28;20476;-73
2021/03/31 01:51:36;;;;;;;5.57;3.70;;;7.80;1.00;;;;;;5065912;28;20428;-73
2021/03/31 01:54:04;;;;;;;4.83;3.50;;;7.80;1.00;;;;;;5060741;28;20413;-73
2021/03/31 01:56:31;;;;;;;4.33;3.27;;;7.80;1.00;;;;;;5055069;28;20434;-73
2021/03/31 01:58:57;;;;;;;7.30;3.30;;;7.70;1.00;;;;;;5068974;28;20413;-73
2021/03/31 02:01:25;;;;;;;7.33;3.00;;;7.70;1.00;;;;;;5073460;28;20456;-73
2021/03/31 02:03:55;;;;;;;11.47;3.73;;;7.70;1.00;;;;;;5074860;28;20888;-73
2021/03/31 02:06:26;;;;;;;8.10;3.83;;;7.70;1.00;;;;;;5074276;28;20806;-73
2021/03/31 02:08:53;;;;;;;5.33;3.07;;;7.70;1.00;;;;;;5074117;28;20776;-73
2021/03/31 02:11:19;;;;;;;9.90;3.13;;;7.70;1.00;;;;;;5074567;28;20491;-73
2021/03/31 02:13:47;;;;;;;4.63;3.00;;;7.60;1.00;;;;;;5057317;28;20821;-73
2021/03/31 02:16:14;;;;;;;4.27;2.83;;;7.60;1.00;;;;;;5054620;28;20501;-73
2021/03/31 02:18:40;;;;;;;5.10;2.97;;;7.60;1.00;;;;;;5055100;28;20425;-73
2021/03/31 02:21:13;;;;;;;7.50;3.17;;;7.60;1.00;;;;;;5069963;28;20839;-73
2021/03/31 02:23:39;;;;;;;4.60;2.77;;;7.50;1.00;;;;;;5081137;28;20406;-73
2021/03/31 02:26:05;;;;;;;6.00;3.73;;;7.50;1.00;;;;;;5074113;28;21002;-73
2021/03/31 02:28:31;;;;;;;5.77;3.47;;;7.50;1.00;;;;;;5074612;28;20488;-73
2021/03/31 02:30:57;;;;;;;6.33;3.60;;;7.50;1.00;;;;;;5073743;28;20424;-73
2021/03/31 02:33:25;;;;;;;8.43;3.77;;;7.40;1.00;;;;;;5056410;28;20429;-72
2021/03/31 02:35:51;;;;;;;4.90;3.27;;;7.50;1.00;;;;;;5053747;28;20808;-75
2021/03/31 02:38:24;;;;;;;8.53;3.40;;;7.40;1.00;;;;;;5064484;28;20511;-75
2021/03/31 02:40:51;;;;;;;5.10;3.30;;;7.40;1.00;;;;;;5074634;28;20475;-75
2021/03/31 02:43:45;;;;;;;6.90;4.00;;;7.40;1.00;;;;;;5074628;28;20400;-76
2021/03/31 02:46:19;;;;;;;4.20;3.20;;;7.30;1.00;;;;;;5074166;28;20470;-75
2021/03/31 02:49:11;;;;;;;4.17;3.27;;;7.30;1.00;;;;;;5074526;28;20766;-75
2021/03/31 02:52:05;;;;;;;5.63;3.23;;;7.30;1.00;;;;;;5085426;28;20495;-75
2021/03/31 02:55:10;;;;;;;5.80;3.63;;;7.30;1.00;;;;;;5094553;28;20389;-75
2021/03/31 02:57:37;;;;;;;6.87;4.30;;;7.20;1.00;;;;;;5094642;28;20506;-75
2021/03/31 03:00:28;;;;;;;11.33;5.10;;;7.20;1.00;;;;;;5074812;28;20956;-76
2021/03/31 03:03:07;;;;;;;15.13;3.73;;;7.10;1.00;;;;;;5074389;28;20381;-75
2021/03/31 03:05:47;;;;;;;3.97;3.20;;;7.10;1.00;;;;;;5074468;28;20397;-75
2021/03/31 03:08:47;;;;;;;8.57;4.20;;;7.00;1.00;;;;;;5070003;28;20448;-75
2021/03/31 03:11:12;;;;;;;5.30;3.43;;;7.00;1.00;;;;;;5053878;28;20418;-75
2021/03/31 03:13:41;;;;;;;7.50;3.47;;;6.90;1.00;;;;;;5055592;28;20410;-75
2021/03/31 03:16:17;;;;;;;7.33;3.37;;;6.90;1.00;;;;;;5067527;28;20433;-75
2021/03/31 03:18:43;;;;;;;10.30;3.50;;;6.90;1.00;;;;;;5074028;28;20413;-75
2021/03/31 03:21:18;;;;;;;7.70;3.90;;;6.80;1.00;;;;;;5074112;28;20436;-75
2021/03/31 03:24:17;;;;;;;8.73;4.07;;;6.80;1.00;;;;;;5073916;28;20413;-76
2021/03/31 03:27:22;;;;;;;5.57;3.33;;;6.80;1.00;;;;;;5073464;28;20405;-75
2021/03/31 03:30:12;;;;;;;10.07;3.97;;;6.70;1.00;;;;;;5073848;28;20421;-76
2021/03/31 03:32:49;;;;;;;7.20;3.50;;;6.70;1.00;;;;;;5074120;28;20393;-75
2021/03/31 03:35:18;;;;;;;4.23;3.07;;;6.70;1.00;;;;;;5074447;28;20521;-76
2021/03/31 03:37:46;;;;;;;5.23;3.13;;;6.70;1.00;;;;;;5073857;28;20445;-76
2021/03/31 03:40:18;;;;;;;5.67;3.00;;;6.70;1.00;;;;;;5073840;28;20430;-76
2021/03/31 03:42:59;;;;;;;6.82;3.25;;;6.60;1.00;;;;;;5074259;28;20758;-75
2021/03/31 03:45:30;;;;;;;18.27;4.47;;;6.70;1.00;;;;;;5073709;28;20155;-75
2021/03/31 03:47:59;;;;;;;9.70;4.37;;;6.60;1.00;;;;;;5073642;28;20939;-75
2021/03/31 03:50:26;;;;;;;16.20;5.33;;;6.60;1.00;;;;;;5073580;28;20405;-73
2021/03/31 03:52:53;;;;;;;7.13;3.63;;;6.60;1.00;;;;;;5073306;28;20405;-73
2021/03/31 03:55:24;;;;;;;9.70;4.37;;;6.60;1.00;;;;;;5071283;28;20409;-73
2021/03/31 03:57:50;;;;;;;7.20;3.73;;;6.50;1.00;;;;;;5073741;28;20935;-73
2021/03/31 04:00:19;;;;;;;9.97;4.10;;;6.50;1.00;;;;;;5077410;28;20491;-73
2021/03/31 04:02:53;;;;;;;7.43;3.60;;;6.40;1.00;;;;;;5067057;28;20505;-73
2021/03/31 04:05:46;;;;;;;8.87;4.10;;;6.40;1.00;;;;;;5064209;28;20911;-75
2021/03/31 04:08:35;;;;;;;7.27;4.03;;;6.50;1.00;;;;;;5074569;28;20567;-76
2021/03/31 04:11:46;;;;;;;6.27;4.30;;;6.40;1.00;;;;;;5070142;28;20793;-76
2021/03/31 04:14:17;;;;;;;6.23;3.60;;;6.40;1.00;;;;;;5077473;28;20393;-76
2021/03/31 04:16:48;;;;;;;7.53;3.33;;;6.30;1.00;;;;;;5077250;28;20457;-76
2021/03/31 04:19:15;;;;;;;11.40;4.13;;;6.30;1.00;;;;;;5061762;28;20421;-76
2021/03/31 04:21:41;;;;;;;6.50;3.47;;;6.30;1.00;;;;;;5077296;28;20465;-73
2021/03/31 04:24:14;;;;;;;9.77;3.73;;;6.30;1.00;;;;;;5092735;28;20405;-73
2021/03/31 04:26:48;;;;;;;12.10;4.10;;;6.20;1.00;;;;;;5076487;28;20462;-73
2021/03/31 04:29:14;;;;;;;6.87;3.50;;;6.20;1.00;;;;;;5076792;28;20424;-73
2021/03/31 04:31:42;;;;;;;6.33;3.70;;;6.20;1.00;;;;;;5076682;28;20477;-73
2021/03/31 04:34:08;;;;;;;7.47;3.90;;;6.20;1.00;;;;;;5076600;28;20472;-73
2021/03/31 04:36:34;;;;;;;7.60;4.07;;;6.10;1.00;;;;;;5077309;28;20503;-73
2021/03/31 04:39:06;;;;;;;22.63;4.40;;;6.20;1.00;;;;;;5076674;28;20789;-73
2021/03/31 04:41:35;;;;;;;5.77;3.77;;;6.10;1.00;;;;;;5073616;28;20402;-73
2021/03/31 04:44:03;;;;;;;7.60;3.90;;;6.10;1.00;;;;;;5057101;28;20483;-73
2021/03/31 04:46:28;;;;;;;4.30;3.53;;;6.10;1.00;;;;;;5056468;28;20410;-73
2021/03/31 04:48:54;;;;;;;5.77;3.90;;;6.10;1.00;;;;;;5069741;28;20846;-73
2021/03/31 04:51:20;;;;;;;7.50;4.20;;;;;;;;;;5076662;28;20505;-76
2021/03/31 04:53:58;;;;;;;15.97;4.20;;;6.10;1.00;;;;;;5076965;28;20804;-76
2021/03/31 04:57:16;;;;;;;6.97;4.03;;;6.10;1.00;;;;;;5075103;28;20444;-81
2021/03/31 05:00:16;;;;;;;9.10;3.92;;;6.00;1.00;;;;;;5076515;28;20466;-80
2021/03/31 05:06:16;;;;;;;10.53;3.27;;;5.90;1.00;;;;;;5076525;28;20397;-78
2021/03/31 05:09:16;;;;;;;8.50;4.13;;;5.90;1.00;;;;;;5074793;28;20884;-79
2021/03/31 05:12:17;;;;;;;7.88;4.22;;;5.90;1.00;;;;;;5070505;28;20397;-78
2021/03/31 05:14:47;;;;;;;4.70;3.03;;;5.90;1.00;;;;;;5076010;28;20225;-76
2021/03/31 05:17:34;;;;;;;17.65;4.15;;;5.90;1.00;;;;;;5076310;28;20441;-76
2021/03/31 05:23:22;;;;;;;17.40;5.67;;;5.90;1.00;;;;;;5075761;28;20433;-80
2021/03/31 05:26:17;;;;;;;17.93;3.37;;;5.90;1.00;;;;;;5075578;28;20449;-81
2021/03/31 05:29:18;;;;;;;4.37;3.20;;;5.90;1.00;;;;;;5074581;28;20409;-80
2021/03/31 05:32:16;;;;;;;5.93;3.75;;;5.90;1.00;;;;;;5075949;28;20389;-80
2021/03/31 05:38:05;;;;;;;4.03;2.95;;;5.90;1.00;;;;;;5075392;28;21012;-79
2021/03/31 05:40:48;;;;;;;8.43;3.77;;;5.90;1.00;;;;;;5075766;28;20164;-81
2021/03/31 05:43:17;;;;;;;5.13;3.20;;;5.90;1.00;;;;;;5074415;28;20437;-79
2021/03/31 05:45:45;;;;;;;9.23;4.40;;;5.90;1.00;;;;;;5076041;28;20398;-76
2021/03/31 05:48:23;;;;;;;4.70;2.93;;;5.90;1.00;;;;;;5078795;28;20487;-75
2021/03/31 05:51:16;;;;;;;11.67;4.10;;;6.00;1.00;;;;;;5079407;28;20511;-74
2021/03/31 05:53:47;;;;;;;7.53;3.20;;;6.00;1.00;;;;;;5089917;28;20418;-75
2021/03/31 05:56:13;;;;;;;7.73;4.30;;;6.00;1.00;;;;;;5072847;28;20425;-75
2021/03/31 05:58:38;;;;;;;6.23;3.40;;;6.10;1.00;;;;;;5075307;28;20449;-75
2021/03/31 06:01:17;;;;;;;4.03;2.90;;;6.10;1.00;;;;;;5075367;28;20775;-75
2021/03/31 06:03:56;;;;;;;8.53;4.13;;;6.20;1.00;;;;;;5075481;28;20284;-76
2021/03/31 06:06:23;;;;;;;4.73;3.00;;;;;;;;;;5072150;28;20448;-72
2021/03/31 06:08:49;;;;;;;11.80;4.30;;;6.30;1.00;;;;;;5055317;28;20407;-72
2021/03/31 06:11:17;;;;;;;5.87;4.00;;;6.40;1.00;;;;;;5062059;28;20433;-72
2021/03/31 06:14:02;;;;;;;4.40;3.33;;;6.60;1.00;;;;;;5071434;28;20447;-72
2021/03/31 06:17:18;;;;;;;5.10;3.67;;;6.70;1.00;;;;;;5074657;28;20389;-76
2021/03/31 06:19:53;;;;;;;10.17;4.30;;;6.80;1.00;;;;;;4992743;28;20433;-73
2021/03/31 06:29:07;;;;;;;7.93;4.47;;;7.10;1.00;;;;;;4986681;28;20501;-82
2021/03/31 06:31:37;;;;;;;8.83;4.17;;;7.30;1.00;;;;;;5012193;28;20416;-72
2021/03/31 06:34:21;;;;;;;11.00;4.47;;;7.40;1.00;;;;;;4991591;28;20429;-72
2021/03/31 06:36:56;;;;;;;11.97;5.00;;;7.60;1.00;;;;;;4993041;28;20479;-75
2021/03/31 06:39:33;;;;;;;13.33;4.20;;;7.70;1.00;;;;;;4993279;28;20424;-74
2021/03/31 06:42:23;;;;;;;7.87;4.30;;;;;;;;;;4993189;28;20405;-75
2021/03/31 06:48:00;;;;;;;10.57;4.37;;;8.20;1.00;;;;;;4989649;28;20432;-75
2021/03/31 06:50:41;;;;;;;12.00;5.07;;;8.50;1.00;;;;;;4993293;28;20433;-77
2021/03/31 06:53:06;;;;;;;15.10;5.10;;;8.60;1.00;;;;;;4988689;28;20913;-74
2021/03/31 06:55:33;;;;;;;14.73;4.57;;;8.80;1.00;;;;;;5006035;28;20444;-72
2021/03/31 06:58:01;;;;;;;7.60;4.40;;;9.10;1.00;;;;;;5068800;28;20195;-72
2021/03/31 07:00:33;;;;;;;13.93;5.83;;;9.30;1.00;;;;;;5065267;28;20970;-72
2021/03/31 07:03:04;;;;;;;8.20;4.73;;;9.40;1.00;;;;;;5067943;28;20414;-72
2021/03/31 07:05:38;;;;;;;13.97;5.20;;;9.60;1.00;;;;;;5073624;28;20424;-72
2021/03/31 07:08:12;;;;;;;10.97;4.80;;;9.80;1.00;;;;;;5073977;28;20401;-72
2021/03/31 07:10:47;;;;;;;11.20;4.37;;;;;;;;;;5073381;28;20401;-72
2021/03/31 07:13:34;;;;;;;12.93;5.57;;;10.20;1.00;;;;;;5072045;28;20572;-72
2021/03/31 07:16:02;;;;;;;11.53;5.50;;;10.40;1.00;;;;;;5073372;28;20495;-72
2021/03/31 07:18:30;;;;;;;12.30;5.10;;;10.60;1.00;;;;;;5073368;28;20511;-72
2021/03/31 07:21:00;;;;;;;12.73;5.80;;;10.80;1.00;;;;;;5073558;28;20408;-72
2021/03/31 07:23:26;;;;;;;11.17;4.93;;;10.90;1.00;;;;;;5073921;28;20398;-73
2021/03/31 07:25:57;;;;;;;20.10;4.93;;;11.10;1.00;;;;;;5073143;28;20742;-72
2021/03/31 07:28:32;;;;;;;7.83;4.30;;;11.20;1.00;;;;;;5073617;28;20397;-72
2021/03/31 07:31:00;;;;;;;11.10;5.20;;;11.40;1.00;;;;;;5073257;28;20401;-72
2021/03/31 07:33:27;;;;;;;8.40;5.07;;;11.60;1.00;;;;;;5073103;28;20868;-72
2021/03/31 07:35:54;;;;;;;5.93;4.20;;;11.70;1.00;;;;;;5073676;28;20834;-72
2021/03/31 07:38:22;;;;;;;9.70;4.70;;;11.90;1.00;;;;;;5073814;28;20461;-72
2021/03/31 07:40:51;;;;;;;36.17;8.80;;;12.10;1.00;;;;;;5071067;28;20399;-72
2021/03/31 07:43:20;;;;;;;13.00;5.10;;;12.20;1.00;;;;;;5074545;28;20445;-73
2021/03/31 07:45:54;;;;;;;9.87;4.83;;;12.30;1.00;;;;;;5072979;28;20397;-72
2021/03/31 07:48:21;;;;;;;9.60;5.00;;;12.50;1.00;;;;;;5075754;28;20439;-72
2021/03/31 07:50:47;;;;;;;7.87;4.93;;;;;;;;;;5060969;28;20476;-72
2021/03/31 07:53:21;;;;;;;7.53;4.90;;;12.70;1.00;;;;;;5073774;28;20389;-75
2021/03/31 07:55:54;;;;;;;9.37;4.73;;;12.70;1.00;;;;;;5073619;28;20394;-75
2021/03/31 07:58:24;;;;;;;11.27;5.40;;;12.90;1.00;;;;;;5073386;28;20437;-75
2021/03/31 08:01:00;;;;;;;11.13;4.97;;;13.10;1.00;;;;;;5073520;28;20364;-75
2021/03/31 08:03:33;;;;;;;11.63;5.27;;;13.30;1.00;;;;;;5073573;28;20386;-75
2021/03/31 08:06:23;;;;;;;7.23;4.43;;;13.30;1.00;;;;;;5087173;28;20769;-75
2021/03/31 08:08:56;;;;;;;10.63;4.77;;;13.40;1.00;;;;;;5093988;28;20394;-76
2021/03/31 08:11:40;;;;;;;15.93;4.80;;;13.60;1.00;;;;;;5093608;28;20883;-75
2021/03/31 08:14:13;;;;;;;8.77;5.03;;;13.70;1.00;;;;;;5070038;28;20600;-75
2021/03/31 08:16:42;;;;;;;10.37;4.87;;;;;;;;;;5073228;28;20401;-75
2021/03/31 08:19:16;;;;;;;13.53;5.23;;;14.10;1.00;;;;;;5073439;28;20430;-75
2021/03/31 08:21:44;;;;;;;10.90;5.00;;;14.20;1.00;;;;;;5073325;28;20364;-75
2021/03/31 08:24:11;;;;;;;11.50;5.23;;;14.40;1.00;;;;;;5073397;28;20854;-72
2021/03/31 08:26:43;;;;;;;11.37;5.60;;;14.50;1.00;;;;;;5072613;28;20364;-73
2021/03/31 08:29:10;;;;;;;13.23;5.83;;;14.70;1.00;;;;;;5072869;28;20390;-73
2021/03/31 08:31:41;;;;;;;11.70;5.43;;;14.90;1.00;;;;;;5072670;28;20469;-73
2021/03/31 08:34:12;;;;;;;10.43;5.20;;;14.90;1.00;;;;;;5072638;28;20748;-73
2021/03/31 08:36:39;;;;;;;11.90;5.50;;;15.10;1.00;;;;;;5073246;28;20746;-72
2021/03/31 08:39:07;;;;;;;12.10;5.43;;;15.20;1.00;;;;;;5073472;28;20492;-75
2021/03/31 08:41:33;;;;;;;11.00;5.40;;;15.30;1.00;;;;;;5072749;28;20857;-75
2021/03/31 08:44:14;;;;;;;28.23;7.90;;;15.50;1.00;;;;;;5068625;28;20535;-75
2021/03/31 08:46:40;;;;;;;14.13;6.80;;;;;;;;;;5077548;28;20267;-75
2021/03/31 08:49:19;;;;;;;15.10;6.60;;;15.80;1.00;;;;;;5085032;28;20773;-75
2021/03/31 08:51:50;;;;;;;16.50;6.60;;;15.90;1.00;;;;;;5076355;28;20766;-75
2021/03/31 08:54:17;;;;;;;14.63;6.90;;;16.00;1.00;;;;;;5076832;28;20425;-75
2021/03/31 08:56:48;;;;;;;17.60;7.57;;;16.10;1.00;;;;;;5076141;28;20413;-75
2021/03/31 08:59:30;;;;;;;14.07;6.50;;;16.30;1.00;;;;;;5061240;28;20422;-75
2021/03/31 09:01:55;;;;;;;15.80;7.30;;;16.40;1.00;;;;;;5075906;28;20417;-75
2021/03/31 09:04:23;;;;;;;28.20;7.10;;;16.60;1.00;;;;;;5096556;28;20384;-75
2021/03/31 09:06:54;;;;;;;20.20;6.90;;;16.70;1.00;;;;;;5077540;28;20483;-75
2021/03/31 09:09:23;;;;;;;16.07;7.80;;;16.80;1.00;;;;;;5075758;28;20388;-75
2021/03/31 09:11:59;;;;;;;14.80;6.93;;;17.00;1.00;;;;;;5075727;28;20388;-74
2021/03/31 09:14:26;;;;;;;19.57;7.73;;;17.10;1.00;;;;;;5071771;28;20445;-74
2021/03/31 09:17:02;;;;;;;13.47;7.20;;;17.20;1.00;;;;;;5073677;28;20446;-72
2021/03/31 09:19:33;;;;;;;16.83;6.30;;;17.30;1.00;;;;;;5065297;28;20471;-74
2021/03/31 09:22:17;;;;;;;19.83;6.80;;;17.40;1.00;;;;;;5065034;28;20976;-74
2021/03/31 09:25:05;;;;;;;16.53;7.30;;;17.60;1.00;;;;;;5073278;28;20856;-75
2021/03/31 09:27:35;;;;;;;16.27;7.23;;;17.70;1.00;;;;;;5073259;28;20771;-75
2021/03/31 09:30:14;;;;;;;23.63;8.17;;;17.80;1.00;;;;;;5074964;28;20705;-74
2021/03/31 09:32:52;;;;;;;15.30;6.93;;;;;;;;;;5068004;28;20423;-75
2021/03/31 09:35:19;;;;;;;19.50;7.97;;;18.20;1.00;;;;;;5056950;28;20431;-75
2021/03/31 09:37:53;;;;;;;16.77;7.93;;;18.30;1.00;;;;;;5058542;28;20941;-76
2021/03/31 09:40:25;;;;;;;19.67;8.50;;;18.40;1.00;;;;;;5088909;28;20437;-73
2021/03/31 09:42:58;;;;;;;24.17;8.67;;;18.50;1.00;;;;;;5062663;28;20512;-73
2021/03/31 09:45:26;;;;;;;22.00;8.00;;;18.60;1.00;;;;;;5067694;28;20430;-73
2021/03/31 09:47:52;;;;;;;18.43;7.93;;;18.70;1.00;;;;;;5074547;28;20399;-73
2021/03/31 09:50:23;;;;;;;18.70;7.80;;;18.90;1.00;;;;;;5068597;28;20484;-72
2021/03/31 09:52:57;;;;;;;20.17;8.13;;;19.00;1.00;;;;;;5072130;28;20438;-72
2021/03/31 09:55:26;;;;;;;20.93;7.70;;;19.10;1.00;;;;;;5073534;28;20523;-73
2021/03/31 09:57:53;;;;;;;16.87;7.83;;;19.20;1.00;;;;;;5083934;28;20551;-73
2021/03/31 10:00:25;;;;;;;20.17;8.03;;;19.30;1.00;;;;;;5074168;28;20414;-73
2021/03/31 10:02:52;;;;;;;24.73;7.60;;;19.40;1.00;;;;;;5081378;28;20521;-73
2021/03/31 10:05:22;;;;;;;19.73;7.77;;;19.50;1.00;;;;;;5074119;28;20918;-73
2021/03/31 10:08:21;;;;;;;22.53;9.07;;;19.60;1.00;;;;;;5073522;28;20772;-74
2021/03/31 10:10:57;;;;;;;21.20;8.40;;;19.70;1.00;;;;;;5074682;28;20396;-72
2021/03/31 10:13:24;;;;;;;16.60;7.13;;;19.80;1.00;;;;;;5072069;28;20817;-72
2021/03/31 10:15:57;;;;;;;13.57;6.70;;;19.80;1.00;;;;;;5071840;28;20450;-72
2021/03/31 10:18:23;;;;;;;20.37;8.73;;;20.00;1.00;;;;;;5074044;28;20448;-72
2021/03/31 10:20:50;;;;;;;17.77;8.30;;;20.10;1.00;;;;;;5068480;28;20490;-73
2021/03/31 10:23:31;;;;;;;18.43;8.20;;;20.30;1.00;;;;;;5067881;28;20293;-72
2021/03/31 10:26:16;;;;;;;20.20;8.23;;;20.30;1.00;;;;;;5073359;28;20441;-72
2021/03/31 10:28:42;;;;;;;22.63;7.97;;;;;;;;;;5070539;28;20421;-72
2021/03/31 10:31:34;;;;;;;22.40;7.80;;;20.50;1.00;;;;;;5073329;28;20405;-72
2021/03/31 10:34:00;;;;;;;14.00;7.37;;;20.50;1.00;;;;;;5074489;28;20416;-72
2021/03/31 10:36:49;;;;;;;18.13;7.43;;;20.60;1.00;;;;;;5053903;28;20775;-72
2021/03/31 10:50:26;;;;;;;16.10;7.60;;;21.20;1.00;;;;;;5072898;28;20430;-75
2021/03/31 10:52:56;;;;;;;15.73;7.50;;;;;;;;;;5063874;28;20427;-76
2021/03/31 10:55:21;;;;;;;17.10;7.50;;;21.40;1.00;;;;;;5059236;28;20411;-75
2021/03/31 10:57:47;;;;;;;19.10;6.70;;;;;;;;;;5068347;28;20863;-75
2021/03/31 11:00:14;;;;;;;18.37;7.23;;;21.60;1.00;;;;;;5053190;28;20635;-75
2021/03/31 11:02:40;;;;;;;19.20;7.70;;;;;;;;;;5069310;28;20617;-75
2021/03/31 11:05:06;;;;;;;14.97;7.13;;;21.80;1.00;;;;;;5073059;28;20949;-75
2021/03/31 11:07:32;;;;;;;20.13;7.00;;;;;;;;;;5091225;28;20973;-75
2021/03/31 11:09:58;;;;;;;17.47;7.30;;;22.00;1.00;;;;;;5083991;28;20437;-75
2021/03/31 11:12:24;;;;;;;21.50;7.70;;;22.10;1.00;;;;;;5053164;28;20892;-77
2021/03/31 11:14:50;;;;;;;16.40;7.23;;;22.10;1.00;;;;;;5052913;28;20577;-75
2021/03/31 11:17:23;;;;;;;15.77;7.00;;;22.20;1.00;;;;;;5064469;28;20243;-75
2021/03/31 11:19:58;;;;;;;18.30;5.90;;;22.30;1.00;;;;;;5072513;28;20434;-76
2021/03/31 11:27:33;;;;;;;16.90;6.50;;;22.30;1.00;;;;;;5063422;28;20193;-75
2021/03/31 11:30:03;;;;;;;14.20;7.17;;;;;;;;;;5067721;28;20440;-75
2021/03/31 11:32:28;;;;;;;20.50;6.90;;;22.30;1.00;;;;;;5063635;28;20168;-75
2021/03/31 11:34:54;;;;;;;15.40;7.17;;;22.40;1.00;;;;;;5052699;28;20520;-75
2021/03/31 11:37:19;;;;;;;14.23;6.50;;;22.30;1.00;;;;;;5069825;28;20283;-76
2021/03/31 11:39:45;;;;;;;18.37;6.90;;;22.30;1.00;;;;;;5072551;28;20174;-75
2021/03/31 11:42:11;;;;;;;19.27;7.50;;;;;;;;;;5072669;28;20169;-75
2021/03/31 11:44:37;;;;;;;17.83;7.33;;;22.60;1.00;;;;;;5068730;28;20177;-76
2021/03/31 11:47:03;;;;;;;18.20;7.53;;;;;;;;;;5071850;28;20427;-76
2021/03/31 11:49:28;;;;;;;18.17;6.63;;;22.70;1.00;;;;;;5052527;28;20197;-76
2021/03/31 11:51:54;;;;;;;17.73;7.70;;;22.70;1.00;;;;;;5055418;28;20472;-76
2021/03/31 11:54:20;;;;;;;16.87;6.90;;;22.80;1.00;;;;;;5052517;28;20163;-76
2021/03/31 11:56:46;;;;;;;17.27;6.87;;;22.80;1.00;;;;;;5067199;28;20542;-73
2021/03/31 11:59:11;;;;;;;20.50;6.97;;;22.80;1.00;;;;;;5068530;28;20586;-73
2021/03/31 12:01:37;;;;;;;20.73;7.57;;;22.90;1.00;;;;;;5061869;28;20165;-74
2021/03/31 12:04:03;;;;;;;18.10;6.97;;;;;;;;;;5071069;28;20182;-74
2021/03/31 12:06:29;;;;;;;25.63;8.77;;;23.10;1.00;;;;;;5067458;28;20573;-74
2021/03/31 12:08:55;;;;;;;13.60;6.47;;;;;;;;;;5076482;28;20460;-74
2021/03/31 12:11:20;;;;;;;15.53;6.93;;;23.30;1.00;;;;;;5061344;28;20253;-72
2021/03/31 12:13:47;;;;;;;27.53;8.70;;;;;;;;;;5064846;28;20932;-72
2021/03/31 12:16:12;;;;;;;17.90;7.13;;;23.40;1.00;;;;;;5056365;28;20222;-73
2021/03/31 12:18:38;;;;;;;15.47;6.73;;;23.40;1.00;;;;;;5070431;28;20473;-72
2021/03/31 12:21:05;;;;;;;19.47;7.53;;;23.50;1.00;;;;;;5070989;28;20177;-72
2021/03/31 12:23:31;;;;;;;16.53;6.50;;;23.50;1.00;;;;;;5077512;28;20183;-72
2021/03/31 12:25:57;;;;;;;16.03;7.10;;;;;;;;;;5072860;28;20984;-75
2021/03/31 12:28:24;;;;;;;16.53;6.70;;;23.80;1.00;;;;;;5066357;28;20215;-75
2021/03/31 12:30:50;;;;;;;16.87;6.97;;;23.80;1.00;;;;;;5058650;28;20969;-75
2021/03/31 12:33:16;;;;;;;13.13;7.17;;;;;;;;;;5076149;28;20403;-75
2021/03/31 12:35:42;;;;;;;18.63;7.40;;;24.00;1.00;;;;;;5072410;28;20558;-75
2021/03/31 12:38:08;;;;;;;18.20;7.00;;;24.10;1.00;;;;;;5072738;28;20481;-75
2021/03/31 12:40:33;;;;;;;14.00;6.80;;;24.20;1.00;;;;;;5073090;28;20458;-75
2021/03/31 12:42:59;;;;;;;20.10;7.17;;;24.30;1.00;;;;;;5088871;28;20186;-75
2021/03/31 12:45:25;;;;;;;19.70;7.20;;;24.30;1.00;;;;;;5055938;28;20170;-75
2021/03/31 12:47:51;;;;;;;16.30;7.00;;;24.30;1.00;;;;;;5060280;28;20202;-74
2021/03/31 12:50:19;;;;;;;13.83;6.60;;;24.40;1.00;;;;;;5071051;28;20649;-75
2021/03/31 12:53:04;;;;;;;21.70;6.70;;;24.40;1.00;;;;;;5080782;28;20185;-75
2021/03/31 12:55:32;;;;;;;16.77;6.60;;;24.50;1.00;;;;;;5070886;28;20996;-75
2021/03/31 12:58:03;;;;;;;15.53;6.93;;;24.50;1.00;;;;;;5063159;28;20558;-75
2021/03/31 13:00:29;;;;;;;17.13;7.20;;;24.60;1.00;;;;;;5056931;28;20879;-76
2021/03/31 13:02:55;;;;;;;14.97;7.30;;;24.60;1.00;;;;;;5073158;28;20458;-75
2021/03/31 13:05:21;;;;;;;13.03;6.03;;;;;;;;;;5069200;28;20207;-75
2021/03/31 13:07:46;;;;;;;11.27;6.10;;;24.80;1.00;;;;;;5073057;28;20193;-75
2021/03/31 13:10:13;;;;;;;11.70;6.07;;;;;;;;;;5075442;28;20432;-75
2021/03/31 13:12:52;;;;;;;10.63;5.77;;;24.80;1.00;;;;;;5067399;28;20275;-76
2021/03/31 13:24:10;;;;;;;11.67;4.77;;;;;;;;;;5032602;28;20459;-77
2021/03/31 13:26:55;;;;;;;13.50;5.57;;;24.90;1.00;;;;;;5038190;28;20815;-75
2021/03/31 13:31:53;;;;;;;17.17;6.07;;;;;;;;;;5032049;28;20522;-75
2021/03/31 13:34:23;;;;;;;19.33;5.40;;;;;;;;;;5032518;28;20168;-75
2021/03/31 13:37:00;;;;;;;13.70;5.87;;;25.10;1.00;;;;;;5032371;28;20428;-75
2021/03/31 13:39:45;;;;;;;11.37;5.07;;;25.30;1.00;;;;;;5030970;28;20459;-76
2021/03/31 13:42:14;;;;;;;9.77;5.10;;;25.50;1.00;;;;;;5036321;28;20427;-74
2021/03/31 13:44:40;;;;;;;10.20;4.80;;;25.50;1.00;;;;;;5029890;28;20419;-76
2021/03/31 13:47:09;;;;;;;11.20;5.70;;;;;;;;;;5023898;28;20774;-75
2021/03/31 13:54:53;;;;;;;7.57;3.90;;;25.50;1.00;;;;;;5074540;28;20734;-76
2021/03/31 13:57:26;;;;;;;11.40;4.33;;;25.50;1.00;;;;;;5064423;28;21096;-74
2021/03/31 13:59:53;;;;;;;11.37;5.43;;;25.60;1.00;;;;;;5062146;28;20416;-75
2021/03/31 14:02:19;;;;;;;9.97;4.50;;;25.70;1.00;;;;;;5058985;28;20448;-75
2021/03/31 14:04:45;;;;;;;11.40;4.40;;;25.70;1.00;;;;;;5074124;28;20398;-75
2021/03/31 14:07:11;;;;;;;9.13;3.97;;;25.80;1.00;;;;;;5073927;28;20400;-75
2021/03/31 14:09:37;;;;;;;10.07;4.47;;;25.80;1.00;;;;;;5071582;28;20690;-75
2021/03/31 14:12:05;;;;;;;7.33;3.83;;;25.80;1.00;;;;;;5073669;28;20482;-75
2021/03/31 14:14:31;;;;;;;7.87;4.00;;;25.70;1.00;;;;;;5056838;28;20436;-73
2021/03/31 14:17:04;;;;;;;10.30;4.13;;;;;;;;;;5077590;28;20462;-74
2021/03/31 14:19:41;;;;;;;7.03;4.10;;;25.90;1.00;;;;;;5070338;28;20173;-74
2021/03/31 14:22:08;;;;;;;12.03;4.30;;;25.80;1.00;;;;;;5072790;28;20445;-74
2021/03/31 14:24:35;;;;;;;13.63;4.73;;;25.80;1.00;;;;;;5060317;28;20918;-74